createdAt,value
2023-12-16T00:04:14.957Z,-11.17
2023-12-16T00:09:17.099Z,-11.19
2023-12-16T00:14:18.984Z,-11.10
2023-12-16T00:19:21.115Z,-10.97
2023-12-16T00:24:23.321Z,-10.99
2023-12-16T00:29:25.400Z,-10.94
2023-12-16T00:34:27.228Z,-11.07
2023-12-16T00:39:29.313Z,-10.99
2023-12-16T00:44:31.044Z,-11.04
2023-12-16T00:49:33.126Z,-10.91
2023-12-16T00:54:35.120Z,-10.93
2023-12-16T00:59:37.319Z,-10.89
2023-12-16T01:04:39.165Z,-11.03
2023-12-16T01:09:41.149Z,-10.97
2023-12-16T01:14:43.003Z,-10.97
2023-12-16T01:19:45.030Z,-10.83
2023-12-16T01:24:47.137Z,-10.74
2023-12-16T01:29:49.181Z,-10.66
2023-12-16T01:34:51.343Z,-10.48
2023-12-16T01:39:53.363Z,-10.42
2023-12-16T01:44:55.249Z,-10.42
2023-12-16T01:49:58.723Z,-10.44
2023-12-16T01:55:00.849Z,-10.29
2023-12-16T02:00:02.652Z,-10.29
2023-12-16T02:05:05.995Z,-10.29
2023-12-16T02:10:08.213Z,-10.10
2023-12-16T02:15:10.411Z,-10.09
2023-12-16T02:20:14.524Z,-10.06
2023-12-16T02:25:16.826Z,-10.04
2023-12-16T02:30:18.987Z,-10.02
2023-12-16T02:35:21.021Z,-10.07
2023-12-16T02:40:23.074Z,-10.01
2023-12-16T02:45:25.600Z,-9.99
2023-12-16T02:50:27.546Z,-10.00
2023-12-16T02:55:29.626Z,-9.92
2023-12-16T03:00:31.510Z,-9.82
2023-12-16T03:05:33.674Z,-9.71
2023-12-16T03:10:35.847Z,-9.64
2023-12-16T03:15:37.978Z,-9.73
2023-12-16T03:20:39.788Z,-9.62
2023-12-16T03:25:41.887Z,-9.70
2023-12-16T03:30:44.055Z,-9.56
2023-12-16T03:35:45.850Z,-9.67
2023-12-16T03:40:47.991Z,-9.76
2023-12-16T03:45:49.782Z,-9.67
2023-12-16T03:50:51.831Z,-9.52
2023-12-16T03:55:54.179Z,-9.42
2023-12-16T04:00:56.455Z,-9.28
2023-12-16T04:05:58.645Z,-9.24
2023-12-16T04:11:00.713Z,-9.14
2023-12-16T04:16:03.282Z,-9.11
2023-12-16T04:21:05.669Z,-9.04
2023-12-16T04:26:08.683Z,-9.01
2023-12-16T04:31:15.044Z,-9.00
2023-12-16T04:36:17.680Z,-8.91
2023-12-16T04:41:19.825Z,-8.86
2023-12-16T04:46:21.913Z,-8.78
2023-12-16T04:51:24.340Z,-8.86
2023-12-16T04:56:26.374Z,-8.74
2023-12-16T05:01:28.427Z,-8.72
2023-12-16T05:06:30.418Z,-8.64
2023-12-16T05:11:32.531Z,-8.65
2023-12-16T05:16:34.708Z,-8.53
2023-12-16T05:21:36.687Z,-8.50
2023-12-16T05:26:38.743Z,-8.51
2023-12-16T05:31:40.859Z,-8.49
2023-12-16T05:36:42.902Z,-8.39
2023-12-16T05:41:44.883Z,-8.25
2023-12-16T05:46:46.975Z,-8.22
2023-12-16T05:51:49.099Z,-8.20
2023-12-16T05:56:51.452Z,-8.15
2023-12-16T06:01:53.613Z,-8.10
2023-12-16T06:06:55.680Z,-7.86
2023-12-16T06:11:57.845Z,-7.71
2023-12-16T06:17:00.099Z,-7.79
2023-12-16T06:22:03.799Z,-7.61
2023-12-16T06:27:05.770Z,-7.54
2023-12-16T06:32:08.126Z,-7.47
2023-12-16T06:37:10.265Z,-7.38
2023-12-16T06:42:12.402Z,-7.30
2023-12-16T06:47:14.462Z,-7.16
2023-12-16T06:52:16.559Z,-7.08
2023-12-16T06:57:19.859Z,-7.07
2023-12-16T07:02:21.900Z,-7.03
2023-12-16T07:07:24.056Z,-6.87
2023-12-16T07:12:26.347Z,-6.80
2023-12-16T07:17:28.546Z,-6.82
2023-12-16T07:22:30.749Z,-6.75
2023-12-16T07:27:32.876Z,-6.67
2023-12-16T07:32:35.003Z,-6.44
2023-12-16T07:37:37.308Z,-6.39
2023-12-16T07:42:42.137Z,-6.31
2023-12-16T07:47:44.578Z,-6.13
2023-12-16T07:52:47.109Z,-6.09
2023-12-16T07:57:49.177Z,-6.08
2023-12-16T08:02:51.244Z,-5.91
2023-12-16T08:07:53.313Z,-5.57
2023-12-16T08:12:55.385Z,-5.66
2023-12-16T08:17:57.435Z,-5.57
2023-12-16T08:22:59.578Z,-5.71
2023-12-16T08:28:01.633Z,-5.75
2023-12-16T08:33:03.755Z,-5.54
2023-12-16T08:38:05.913Z,-5.42
2023-12-16T08:43:07.918Z,-5.17
2023-12-16T08:48:10.157Z,-4.91
2023-12-16T08:53:12.634Z,-4.84
2023-12-16T08:58:14.506Z,-4.82
2023-12-16T09:03:16.727Z,-4.76
2023-12-16T09:08:18.794Z,-4.73
2023-12-16T09:13:20.771Z,-4.49
2023-12-16T09:18:22.901Z,-4.69
2023-12-16T09:23:25.182Z,-4.59
2023-12-16T09:28:27.241Z,-4.59
2023-12-16T09:33:29.518Z,-4.60
2023-12-16T09:38:31.655Z,-4.50
2023-12-16T09:43:34.692Z,-4.49
2023-12-16T09:48:36.917Z,-4.41
2023-12-16T09:53:39.141Z,-4.36
2023-12-16T09:58:41.872Z,-4.34
2023-12-16T10:03:46.280Z,-4.17
2023-12-16T10:08:48.973Z,-4.23
2023-12-16T10:13:59.183Z,-4.09
2023-12-16T10:19:01.711Z,-4.03
2023-12-16T10:24:04.022Z,-4.03
2023-12-16T10:29:06.026Z,-4.13
2023-12-16T10:34:08.307Z,-4.15
2023-12-16T10:39:10.446Z,-4.13
2023-12-16T10:44:12.559Z,-4.22
2023-12-16T10:49:14.681Z,-4.06
2023-12-16T10:54:26.768Z,-4.06
2023-12-16T10:59:33.329Z,-4.05
2023-12-16T11:04:36.361Z,-4.11
2023-12-16T11:09:38.616Z,-4.11
2023-12-16T11:14:40.635Z,-4.10
2023-12-16T11:20:05.861Z,-3.97
2023-12-16T11:25:19.139Z,-3.94
2023-12-16T11:30:23.066Z,-4.02
2023-12-16T11:35:37.124Z,-4.01
2023-12-16T11:40:46.253Z,-3.92
2023-12-16T11:45:51.778Z,-3.86
2023-12-16T11:50:53.917Z,-3.92
2023-12-16T11:55:56.505Z,-3.85
2023-12-16T12:00:58.795Z,-3.74
2023-12-16T12:06:00.903Z,-3.71
2023-12-16T12:11:03.004Z,-3.64
2023-12-16T12:16:06.631Z,-3.64
2023-12-16T12:21:08.891Z,-3.67
2023-12-16T12:26:11.088Z,-3.75
2023-12-16T12:31:13.195Z,-3.79
2023-12-16T12:36:15.358Z,-3.86
2023-12-16T12:41:17.598Z,-3.92
2023-12-16T12:46:19.786Z,-3.86
2023-12-16T12:51:21.820Z,-3.91
2023-12-16T12:56:24.293Z,-3.88
2023-12-16T13:01:26.562Z,-3.86
2023-12-16T13:06:31.618Z,-3.78
2023-12-16T13:11:33.749Z,-3.96
2023-12-16T13:16:36.715Z,-3.88
2023-12-16T13:21:38.780Z,-3.92
2023-12-16T13:26:40.912Z,-3.88
2023-12-16T13:31:43.213Z,-3.86
2023-12-16T13:36:50.427Z,-3.83
2023-12-16T13:41:54.085Z,-3.80
2023-12-16T13:46:56.095Z,-3.88
2023-12-16T13:51:58.212Z,-3.87
2023-12-16T13:57:01.197Z,-3.80
2023-12-16T14:02:03.461Z,-3.80
2023-12-16T14:07:07.629Z,-3.76
2023-12-16T14:12:10.176Z,-3.87
2023-12-16T14:17:12.440Z,-3.75
2023-12-16T14:22:15.093Z,-3.62
2023-12-16T14:27:17.452Z,-3.70
2023-12-16T14:32:19.494Z,-3.66
2023-12-16T14:37:21.667Z,-3.54
2023-12-16T14:42:23.700Z,-3.61
2023-12-16T14:47:25.892Z,-3.59
2023-12-16T14:52:27.947Z,-3.58
2023-12-16T14:57:29.970Z,-3.56
2023-12-16T15:02:32.162Z,-3.54
2023-12-16T15:07:34.463Z,-3.62
2023-12-16T15:12:36.759Z,-3.43
2023-12-16T15:17:39.514Z,-3.62
2023-12-16T15:22:42.120Z,-3.60
2023-12-16T15:27:44.658Z,-3.57
2023-12-16T15:32:46.642Z,-3.55
2023-12-16T15:37:48.814Z,-3.57
2023-12-16T15:42:50.881Z,-3.55
2023-12-16T15:47:53.196Z,-3.60
2023-12-16T15:52:55.067Z,-3.66
2023-12-16T15:57:57.056Z,-3.65
2023-12-16T16:02:59.422Z,-3.54
2023-12-16T16:08:01.564Z,-3.69
2023-12-16T16:13:03.970Z,-3.66
2023-12-16T16:18:06.038Z,-3.80
2023-12-16T16:23:08.403Z,-3.68
2023-12-16T16:28:10.282Z,-3.76
2023-12-16T16:33:12.318Z,-3.70
2023-12-16T16:38:14.393Z,-3.58
2023-12-16T16:43:16.401Z,-3.63
2023-12-16T16:48:18.787Z,-3.63
2023-12-16T16:53:21.822Z,-3.58
2023-12-16T16:58:23.587Z,-3.70
2023-12-16T17:03:26.008Z,-3.57
2023-12-16T17:08:28.267Z,-3.58
2023-12-16T17:13:30.417Z,-3.58
2023-12-16T17:18:32.929Z,-3.56
2023-12-16T17:23:35.200Z,-3.53
2023-12-16T17:28:37.489Z,-3.60
2023-12-16T17:33:40.171Z,-3.62
2023-12-16T17:38:42.324Z,-3.64
2023-12-16T17:43:44.426Z,-3.69
2023-12-16T17:48:46.753Z,-3.70
2023-12-16T17:53:49.091Z,-3.79
2023-12-16T17:58:52.036Z,-3.81
2023-12-16T18:03:54.717Z,-3.88
2023-12-16T18:08:56.902Z,-3.91
2023-12-16T18:13:59.353Z,-3.90
2023-12-16T18:19:02.057Z,-3.89
2023-12-16T18:24:04.659Z,-4.03
2023-12-16T18:29:06.720Z,-4.01
2023-12-16T18:34:09.000Z,-4.11
2023-12-16T18:39:11.194Z,-4.10
2023-12-16T18:44:13.324Z,-3.98
2023-12-16T18:49:15.476Z,-3.95
2023-12-16T18:54:17.854Z,-3.86
2023-12-16T18:59:20.697Z,-3.79
2023-12-16T19:04:22.794Z,-3.81
2023-12-16T19:09:25.128Z,-3.80
2023-12-16T19:14:28.756Z,-3.80
2023-12-16T19:19:33.888Z,-3.79
2023-12-16T19:24:38.224Z,-3.73
2023-12-16T19:29:47.210Z,-3.69
2023-12-16T19:34:56.736Z,-3.63
2023-12-16T19:40:00.272Z,-3.75
2023-12-16T19:45:09.684Z,-3.70
2023-12-16T19:50:16.929Z,-3.75
2023-12-16T19:55:22.993Z,-3.69
2023-12-16T20:00:27.698Z,-3.65
2023-12-16T20:05:37.731Z,-3.58
2023-12-16T20:10:46.160Z,-3.66
2023-12-16T20:15:53.570Z,-3.75
2023-12-16T20:20:56.278Z,-3.78
2023-12-16T20:26:01.139Z,-3.77
2023-12-16T20:31:03.164Z,-3.88
2023-12-16T20:36:05.459Z,-3.88
2023-12-16T20:41:09.053Z,-3.76
2023-12-16T20:46:12.760Z,-3.83
2023-12-16T20:51:14.574Z,-3.92
2023-12-16T20:56:16.543Z,-4.04
2023-12-16T21:01:18.643Z,-4.01
2023-12-16T21:06:20.672Z,-4.02
2023-12-16T21:11:22.658Z,-4.03
2023-12-16T21:16:24.769Z,-4.07
2023-12-16T21:21:26.828Z,-4.04
2023-12-16T21:26:28.826Z,-4.09
2023-12-16T21:31:30.930Z,-4.09
2023-12-16T21:36:32.980Z,-4.02
2023-12-16T21:41:35.131Z,-3.95
2023-12-16T21:46:37.137Z,-3.96
2023-12-16T21:51:39.091Z,-3.99
2023-12-16T21:56:41.162Z,-3.99
2023-12-16T22:01:43.332Z,-4.04
2023-12-16T22:06:45.339Z,-4.03
2023-12-16T22:11:47.336Z,-3.93
2023-12-16T22:16:49.361Z,-3.99
2023-12-16T22:21:51.359Z,-3.94
2023-12-16T22:26:53.753Z,-3.90
2023-12-16T22:31:55.986Z,-4.06
2023-12-16T22:36:57.936Z,-4.01
2023-12-16T22:41:59.985Z,-3.96
2023-12-16T22:47:01.979Z,-3.95
2023-12-16T22:52:04.246Z,-3.95
2023-12-16T22:57:06.328Z,-3.96
2023-12-16T23:02:08.398Z,-3.91
2023-12-16T23:07:10.521Z,-3.89
2023-12-16T23:12:13.079Z,-3.87
2023-12-16T23:17:15.053Z,-3.83
2023-12-16T23:22:19.215Z,-3.81
2023-12-16T23:27:21.267Z,-3.80
2023-12-16T23:32:23.336Z,-3.87
2023-12-16T23:37:25.319Z,-3.86
2023-12-16T23:42:27.414Z,-3.87
2023-12-16T23:47:29.500Z,-3.89
2023-12-16T23:52:31.503Z,-3.77
2023-12-16T23:57:33.622Z,-3.87
